sensor_id;sensor_type;location;lat;lon;timestamp;temperature;humidity
34646;DHT22;20857;47.808;12.482;2022-12-29T00:01:09;4.30;99.90
34646;DHT22;20857;47.808;12.482;2022-12-29T00:03:35;4.30;99.90
34646;DHT22;20857;47.808;12.482;2022-12-29T00:06:00;4.30;99.90
34646;DHT22;20857;47.808;12.482;2022-12-29T00:08:27;4.30;99.90
34646;DHT22;20857;47.808;12.482;2022-12-29T00:13:35;4.30;99.90
34646;DHT22;20857;47.808;12.482;2022-12-29T00:16:19;4.20;99.90
34646;DHT22;20857;47.808;12.482;2022-12-29T00:18:45;4.20;99.90
34646;DHT22;20857;47.808;12.482;2022-12-29T00:21:14;4.00;99.90
34646;DHT22;20857;47.808;12.482;2022-12-29T00:23:58;4.20;99.90
34646;DHT22;20857;47.808;12.482;2022-12-29T00:26:42;4.20;99.90
34646;DHT22;20857;47.808;12.482;2022-12-29T00:29:27;4.10;99.90
34646;DHT22;20857;47.808;12.482;2022-12-29T00:32:11;4.10;99.90
34646;DHT22;20857;47.808;12.482;2022-12-29T00:34:55;4.00;99.90
34646;DHT22;20857;47.808;12.482;2022-12-29T00:37:37;4.00;99.90
34646;DHT22;20857;47.808;12.482;2022-12-29T00:40:21;4.00;99.90
34646;DHT22;20857;47.808;12.482;2022-12-29T00:43:05;4.00;99.90
34646;DHT22;20857;47.808;12.482;2022-12-29T00:45:49;4.00;99.90
34646;DHT22;20857;47.808;12.482;2022-12-29T00:48:15;4.00;99.90
34646;DHT22;20857;47.808;12.482;2022-12-29T00:50:40;4.00;99.90
34646;DHT22;20857;47.808;12.482;2022-12-29T00:53:06;4.00;99.90
34646;DHT22;20857;47.808;12.482;2022-12-29T00:55:31;4.00;99.90
34646;DHT22;20857;47.808;12.482;2022-12-29T00:58:01;4.00;99.90
34646;DHT22;20857;47.808;12.482;2022-12-29T01:00:26;4.00;99.90
34646;DHT22;20857;47.808;12.482;2022-12-29T01:02:51;4.00;99.90
34646;DHT22;20857;47.808;12.482;2022-12-29T01:05:17;4.00;99.90
34646;DHT22;20857;47.808;12.482;2022-12-29T01:07:42;3.80;99.90
34646;DHT22;20857;47.808;12.482;2022-12-29T01:10:08;3.90;99.90
34646;DHT22;20857;47.808;12.482;2022-12-29T01:12:36;3.90;99.90
34646;DHT22;20857;47.808;12.482;2022-12-29T01:15:11;4.00;99.90
34646;DHT22;20857;47.808;12.482;2022-12-29T01:17:36;4.10;99.90
34646;DHT22;20857;47.808;12.482;2022-12-29T01:20:02;4.20;99.90
34646;DHT22;20857;47.808;12.482;2022-12-29T01:22:28;4.10;99.90
34646;DHT22;20857;47.808;12.482;2022-12-29T01:24:53;3.90;99.90
34646;DHT22;20857;47.808;12.482;2022-12-29T01:27:19;4.00;99.90
34646;DHT22;20857;47.808;12.482;2022-12-29T01:29:45;3.90;99.90
34646;DHT22;20857;47.808;12.482;2022-12-29T01:32:10;3.80;99.90
34646;DHT22;20857;47.808;12.482;2022-12-29T01:34:36;3.90;99.90
34646;DHT22;20857;47.808;12.482;2022-12-29T01:37:01;3.90;99.90
34646;DHT22;20857;47.808;12.482;2022-12-29T01:39:27;3.90;99.90
34646;DHT22;20857;47.808;12.482;2022-12-29T01:41:52;3.70;99.90
34646;DHT22;20857;47.808;12.482;2022-12-29T01:47:02;3.90;99.90
34646;DHT22;20857;47.808;12.482;2022-12-29T01:49:27;3.80;99.90
34646;DHT22;20857;47.808;12.482;2022-12-29T01:51:55;3.70;99.90
34646;DHT22;20857;47.808;12.482;2022-12-29T01:54:31;3.90;99.90
34646;DHT22;20857;47.808;12.482;2022-12-29T01:56:57;3.90;99.90
34646;DHT22;20857;47.808;12.482;2022-12-29T01:59:26;3.90;99.90
34646;DHT22;20857;47.808;12.482;2022-12-29T02:01:53;3.80;99.90
34646;DHT22;20857;47.808;12.482;2022-12-29T02:04:19;3.80;99.90
34646;DHT22;20857;47.808;12.482;2022-12-29T02:06:49;3.80;99.90
34646;DHT22;20857;47.808;12.482;2022-12-29T02:09:16;3.80;99.90
34646;DHT22;20857;47.808;12.482;2022-12-29T02:11:41;3.70;99.90
34646;DHT22;20857;47.808;12.482;2022-12-29T02:14:10;3.80;99.90
34646;DHT22;20857;47.808;12.482;2022-12-29T02:16:40;3.80;99.90
34646;DHT22;20857;47.808;12.482;2022-12-29T02:24:07;3.70;99.90
34646;DHT22;20857;47.808;12.482;2022-12-29T02:31:58;3.80;99.90
34646;DHT22;20857;47.808;12.482;2022-12-29T02:39:40;3.90;99.90
34646;DHT22;20857;47.808;12.482;2022-12-29T02:42:20;3.90;99.90
34646;DHT22;20857;47.808;12.482;2022-12-29T02:45:02;3.90;99.90
34646;DHT22;20857;47.808;12.482;2022-12-29T02:52:46;3.90;99.90
34646;DHT22;20857;47.808;12.482;2022-12-29T02:55:14;3.90;99.90
34646;DHT22;20857;47.808;12.482;2022-12-29T02:57:40;3.80;99.90
34646;DHT22;20857;47.808;12.482;2022-12-29T03:00:15;3.80;99.90
34646;DHT22;20857;47.808;12.482;2022-12-29T03:05:12;3.70;99.90
34646;DHT22;20857;47.808;12.482;2022-12-29T03:07:43;3.70;99.90
34646;DHT22;20857;47.808;12.482;2022-12-29T03:10:29;3.70;99.90
34646;DHT22;20857;47.808;12.482;2022-12-29T03:15:42;3.60;99.90
34646;DHT22;20857;47.808;12.482;2022-12-29T03:18:32;4.50;99.90
34646;DHT22;20857;47.808;12.482;2022-12-29T03:21:06;3.70;99.90
34646;DHT22;20857;47.808;12.482;2022-12-29T03:23:33;3.70;99.90
34646;DHT22;20857;47.808;12.482;2022-12-29T03:26:01;3.70;99.90
34646;DHT22;20857;47.808;12.482;2022-12-29T03:28:36;3.70;99.90
34646;DHT22;20857;47.808;12.482;2022-12-29T03:31:03;3.70;99.90
34646;DHT22;20857;47.808;12.482;2022-12-29T03:33:29;3.60;99.90
34646;DHT22;20857;47.808;12.482;2022-12-29T03:36:00;3.50;99.90
34646;DHT22;20857;47.808;12.482;2022-12-29T03:38:37;3.60;99.90
34646;DHT22;20857;47.808;12.482;2022-12-29T03:41:06;3.60;99.90
34646;DHT22;20857;47.808;12.482;2022-12-29T03:43:32;3.70;99.90
34646;DHT22;20857;47.808;12.482;2022-12-29T03:45:58;3.60;99.90
34646;DHT22;20857;47.808;12.482;2022-12-29T03:48:24;3.60;99.90
34646;DHT22;20857;47.808;12.482;2022-12-29T03:50:49;3.70;99.90
34646;DHT22;20857;47.808;12.482;2022-12-29T03:53:15;3.70;99.90
34646;DHT22;20857;47.808;12.482;2022-12-29T03:55:40;4.20;99.90
34646;DHT22;20857;47.808;12.482;2022-12-29T03:58:06;4.20;99.90
34646;DHT22;20857;47.808;12.482;2022-12-29T04:00:31;4.20;99.90
34646;DHT22;20857;47.808;12.482;2022-12-29T04:02:57;4.20;99.90
34646;DHT22;20857;47.808;12.482;2022-12-29T04:05:22;4.50;99.90
34646;DHT22;20857;47.808;12.482;2022-12-29T04:07:48;4.40;99.90
34646;DHT22;20857;47.808;12.482;2022-12-29T04:10:13;4.40;99.90
34646;DHT22;20857;47.808;12.482;2022-12-29T04:12:39;4.10;99.90
34646;DHT22;20857;47.808;12.482;2022-12-29T04:15:07;4.20;99.90
34646;DHT22;20857;47.808;12.482;2022-12-29T04:17:32;4.20;99.90
34646;DHT22;20857;47.808;12.482;2022-12-29T04:19:58;4.10;99.90
34646;DHT22;20857;47.808;12.482;2022-12-29T04:22:44;4.20;99.90
34646;DHT22;20857;47.808;12.482;2022-12-29T04:25:10;4.10;99.90
34646;DHT22;20857;47.808;12.482;2022-12-29T04:27:35;3.90;99.90
34646;DHT22;20857;47.808;12.482;2022-12-29T04:30:01;3.80;99.90
34646;DHT22;20857;47.808;12.482;2022-12-29T04:32:26;3.90;99.90
34646;DHT22;20857;47.808;12.482;2022-12-29T04:34:52;4.00;99.90
34646;DHT22;20857;47.808;12.482;2022-12-29T04:37:17;3.80;99.90
34646;DHT22;20857;47.808;12.482;2022-12-29T04:39:43;3.80;99.90
34646;DHT22;20857;47.808;12.482;2022-12-29T04:42:08;3.70;99.90
34646;DHT22;20857;47.808;12.482;2022-12-29T04:44:33;3.80;99.90
34646;DHT22;20857;47.808;12.482;2022-12-29T04:46:59;3.80;99.90
34646;DHT22;20857;47.808;12.482;2022-12-29T04:49:24;4.00;99.90
34646;DHT22;20857;47.808;12.482;2022-12-29T04:51:50;3.80;99.90
34646;DHT22;20857;47.808;12.482;2022-12-29T04:54:22;3.90;99.90
34646;DHT22;20857;47.808;12.482;2022-12-29T04:56:47;4.10;99.90
34646;DHT22;20857;47.808;12.482;2022-12-29T04:59:13;4.00;99.90
34646;DHT22;20857;47.808;12.482;2022-12-29T05:01:38;4.00;99.90
34646;DHT22;20857;47.808;12.482;2022-12-29T05:04:04;4.10;99.90
34646;DHT22;20857;47.808;12.482;2022-12-29T05:06:29;4.30;99.90
34646;DHT22;20857;47.808;12.482;2022-12-29T05:08:55;4.10;99.90
34646;DHT22;20857;47.808;12.482;2022-12-29T05:11:20;4.10;99.90
34646;DHT22;20857;47.808;12.482;2022-12-29T05:13:46;4.30;99.90
34646;DHT22;20857;47.808;12.482;2022-12-29T05:16:12;4.30;99.90
34646;DHT22;20857;47.808;12.482;2022-12-29T05:18:37;4.10;99.90
34646;DHT22;20857;47.808;12.482;2022-12-29T05:21:03;4.10;99.90
34646;DHT22;20857;47.808;12.482;2022-12-29T05:23:28;4.50;99.90
34646;DHT22;20857;47.808;12.482;2022-12-29T05:25:54;4.30;99.90
34646;DHT22;20857;47.808;12.482;2022-12-29T05:28:19;4.30;99.90
34646;DHT22;20857;47.808;12.482;2022-12-29T05:30:47;4.30;99.90
34646;DHT22;20857;47.808;12.482;2022-12-29T05:33:13;4.50;99.90
34646;DHT22;20857;47.808;12.482;2022-12-29T05:35:38;4.50;99.90
34646;DHT22;20857;47.808;12.482;2022-12-29T05:38:04;4.50;99.90
34646;DHT22;20857;47.808;12.482;2022-12-29T05:40:29;4.40;99.90
34646;DHT22;20857;47.808;12.482;2022-12-29T05:42:55;4.60;99.90
34646;DHT22;20857;47.808;12.482;2022-12-29T05:45:20;4.50;99.90
34646;DHT22;20857;47.808;12.482;2022-12-29T05:47:46;4.60;99.90
34646;DHT22;20857;47.808;12.482;2022-12-29T05:50:11;4.70;99.90
34646;DHT22;20857;47.808;12.482;2022-12-29T05:52:37;4.50;99.90
34646;DHT22;20857;47.808;12.482;2022-12-29T05:55:02;4.50;99.90
34646;DHT22;20857;47.808;12.482;2022-12-29T05:57:28;4.70;99.90
34646;DHT22;20857;47.808;12.482;2022-12-29T05:59:53;4.50;99.90
34646;DHT22;20857;47.808;12.482;2022-12-29T06:02:19;4.50;99.90
34646;DHT22;20857;47.808;12.482;2022-12-29T06:04:44;4.60;99.90
34646;DHT22;20857;47.808;12.482;2022-12-29T06:07:10;4.40;99.90
34646;DHT22;20857;47.808;12.482;2022-12-29T06:09:35;4.60;99.90
34646;DHT22;20857;47.808;12.482;2022-12-29T06:12:01;4.50;99.90
34646;DHT22;20857;47.808;12.482;2022-12-29T06:14:26;4.80;99.90
34646;DHT22;20857;47.808;12.482;2022-12-29T06:16:52;4.70;99.90
34646;DHT22;20857;47.808;12.482;2022-12-29T06:19:17;4.70;99.90
34646;DHT22;20857;47.808;12.482;2022-12-29T06:21:42;4.80;99.90
34646;DHT22;20857;47.808;12.482;2022-12-29T06:24:08;4.90;99.90
34646;DHT22;20857;47.808;12.482;2022-12-29T06:26:33;5.00;99.90
34646;DHT22;20857;47.808;12.482;2022-12-29T06:28:59;5.10;99.90
34646;DHT22;20857;47.808;12.482;2022-12-29T06:31:24;5.10;99.90
34646;DHT22;20857;47.808;12.482;2022-12-29T06:33:50;5.10;99.90
34646;DHT22;20857;47.808;12.482;2022-12-29T06:36:15;5.30;99.90
34646;DHT22;20857;47.808;12.482;2022-12-29T06:38:41;5.30;99.90
34646;DHT22;20857;47.808;12.482;2022-12-29T06:41:06;5.20;99.90
34646;DHT22;20857;47.808;12.482;2022-12-29T06:43:32;5.20;99.90
34646;DHT22;20857;47.808;12.482;2022-12-29T06:45:57;5.00;99.90
34646;DHT22;20857;47.808;12.482;2022-12-29T06:48:23;5.20;99.90
34646;DHT22;20857;47.808;12.482;2022-12-29T06:50:48;5.10;99.90
34646;DHT22;20857;47.808;12.482;2022-12-29T06:53:14;5.10;99.90
34646;DHT22;20857;47.808;12.482;2022-12-29T06:55:40;5.40;99.90
34646;DHT22;20857;47.808;12.482;2022-12-29T06:58:06;5.30;99.90
34646;DHT22;20857;47.808;12.482;2022-12-29T07:00:31;5.20;99.90
34646;DHT22;20857;47.808;12.482;2022-12-29T07:02:57;5.20;99.90
34646;DHT22;20857;47.808;12.482;2022-12-29T07:05:23;5.30;99.90
34646;DHT22;20857;47.808;12.482;2022-12-29T07:07:50;5.30;99.90
34646;DHT22;20857;47.808;12.482;2022-12-29T07:10:15;5.30;99.90
34646;DHT22;20857;47.808;12.482;2022-12-29T07:12:41;5.20;99.90
34646;DHT22;20857;47.808;12.482;2022-12-29T07:15:07;5.30;99.90
34646;DHT22;20857;47.808;12.482;2022-12-29T07:17:32;5.20;99.90
34646;DHT22;20857;47.808;12.482;2022-12-29T07:19:58;5.10;99.90
34646;DHT22;20857;47.808;12.482;2022-12-29T07:22:23;5.20;99.90
34646;DHT22;20857;47.808;12.482;2022-12-29T07:24:49;5.20;99.90
34646;DHT22;20857;47.808;12.482;2022-12-29T07:27:14;5.20;99.90
34646;DHT22;20857;47.808;12.482;2022-12-29T07:29:40;5.20;99.90
34646;DHT22;20857;47.808;12.482;2022-12-29T07:32:05;5.30;99.90
34646;DHT22;20857;47.808;12.482;2022-12-29T07:34:30;5.40;99.90
34646;DHT22;20857;47.808;12.482;2022-12-29T07:36:56;5.20;99.90
34646;DHT22;20857;47.808;12.482;2022-12-29T07:39:21;5.20;99.90
34646;DHT22;20857;47.808;12.482;2022-12-29T07:41:47;5.30;99.90
34646;DHT22;20857;47.808;12.482;2022-12-29T07:44:12;5.50;99.90
34646;DHT22;20857;47.808;12.482;2022-12-29T07:46:38;5.50;99.90
34646;DHT22;20857;47.808;12.482;2022-12-29T07:49:03;5.40;99.90
34646;DHT22;20857;47.808;12.482;2022-12-29T07:51:29;5.50;99.90
34646;DHT22;20857;47.808;12.482;2022-12-29T07:53:54;5.50;99.90
34646;DHT22;20857;47.808;12.482;2022-12-29T07:56:20;5.50;99.90
34646;DHT22;20857;47.808;12.482;2022-12-29T07:58:45;5.70;99.90
34646;DHT22;20857;47.808;12.482;2022-12-29T08:01:10;5.60;99.90
34646;DHT22;20857;47.808;12.482;2022-12-29T08:03:36;5.50;99.90
34646;DHT22;20857;47.808;12.482;2022-12-29T08:06:02;5.80;99.90
34646;DHT22;20857;47.808;12.482;2022-12-29T08:08:27;5.70;99.90
34646;DHT22;20857;47.808;12.482;2022-12-29T08:10:54;5.70;99.90
34646;DHT22;20857;47.808;12.482;2022-12-29T08:13:19;5.60;99.90
34646;DHT22;20857;47.808;12.482;2022-12-29T08:15:44;5.80;99.90
34646;DHT22;20857;47.808;12.482;2022-12-29T08:18:10;5.70;99.90
34646;DHT22;20857;47.808;12.482;2022-12-29T08:20:35;5.90;99.90
34646;DHT22;20857;47.808;12.482;2022-12-29T08:23:01;5.80;99.90
34646;DHT22;20857;47.808;12.482;2022-12-29T08:25:26;5.90;99.90
34646;DHT22;20857;47.808;12.482;2022-12-29T08:27:52;6.10;99.90
34646;DHT22;20857;47.808;12.482;2022-12-29T08:30:17;6.30;99.90
34646;DHT22;20857;47.808;12.482;2022-12-29T08:32:43;6.20;99.90
34646;DHT22;20857;47.808;12.482;2022-12-29T08:35:08;6.50;99.90
34646;DHT22;20857;47.808;12.482;2022-12-29T08:37:34;6.40;99.90
34646;DHT22;20857;47.808;12.482;2022-12-29T08:39:59;6.40;99.90
34646;DHT22;20857;47.808;12.482;2022-12-29T08:42:29;6.40;99.90
34646;DHT22;20857;47.808;12.482;2022-12-29T08:44:56;6.50;99.90
34646;DHT22;20857;47.808;12.482;2022-12-29T08:47:22;6.60;99.90
34646;DHT22;20857;47.808;12.482;2022-12-29T08:49:47;6.40;99.90
34646;DHT22;20857;47.808;12.482;2022-12-29T08:52:13;6.70;99.90
34646;DHT22;20857;47.808;12.482;2022-12-29T08:54:39;6.80;99.90
34646;DHT22;20857;47.808;12.482;2022-12-29T08:57:04;6.90;99.90
34646;DHT22;20857;47.808;12.482;2022-12-29T08:59:30;6.80;99.90
34646;DHT22;20857;47.808;12.482;2022-12-29T09:01:55;6.90;99.90
34646;DHT22;20857;47.808;12.482;2022-12-29T09:04:21;7.00;99.90
34646;DHT22;20857;47.808;12.482;2022-12-29T09:06:48;7.00;99.90
34646;DHT22;20857;47.808;12.482;2022-12-29T09:09:14;7.00;99.90
34646;DHT22;20857;47.808;12.482;2022-12-29T09:11:39;7.10;99.90
34646;DHT22;20857;47.808;12.482;2022-12-29T09:14:06;7.10;99.90
34646;DHT22;20857;47.808;12.482;2022-12-29T09:16:31;7.20;99.90
34646;DHT22;20857;47.808;12.482;2022-12-29T09:18:57;7.20;99.90
34646;DHT22;20857;47.808;12.482;2022-12-29T09:21:22;7.30;99.90
34646;DHT22;20857;47.808;12.482;2022-12-29T09:23:48;7.30;99.90
34646;DHT22;20857;47.808;12.482;2022-12-29T09:26:13;7.30;99.90
34646;DHT22;20857;47.808;12.482;2022-12-29T09:28:39;7.30;99.90
34646;DHT22;20857;47.808;12.482;2022-12-29T09:31:05;7.30;99.90
34646;DHT22;20857;47.808;12.482;2022-12-29T09:33:31;7.40;99.90
34646;DHT22;20857;47.808;12.482;2022-12-29T09:35:58;7.40;99.90
34646;DHT22;20857;47.808;12.482;2022-12-29T09:38:24;7.40;99.90
34646;DHT22;20857;47.808;12.482;2022-12-29T09:40:51;7.40;99.90
34646;DHT22;20857;47.808;12.482;2022-12-29T09:48:37;7.60;99.90
34646;DHT22;20857;47.808;12.482;2022-12-29T09:51:05;7.70;99.90
34646;DHT22;20857;47.808;12.482;2022-12-29T09:56:00;7.90;99.90
34646;DHT22;20857;47.808;12.482;2022-12-29T09:58:28;8.00;99.90
34646;DHT22;20857;47.808;12.482;2022-12-29T10:03:22;8.00;99.90
34646;DHT22;20857;47.808;12.482;2022-12-29T10:06:02;8.40;99.90
34646;DHT22;20857;47.808;12.482;2022-12-29T10:10:56;8.50;99.90
34646;DHT22;20857;47.808;12.482;2022-12-29T10:13:38;8.50;99.90
34646;DHT22;20857;47.808;12.482;2022-12-29T10:18:53;8.70;99.90
34646;DHT22;20857;47.808;12.482;2022-12-29T10:24:05;8.80;99.90
34646;DHT22;20857;47.808;12.482;2022-12-29T10:26:33;9.10;99.90
34646;DHT22;20857;47.808;12.482;2022-12-29T10:29:05;9.30;99.90
34646;DHT22;20857;47.808;12.482;2022-12-29T10:31:33;9.60;99.90
34646;DHT22;20857;47.808;12.482;2022-12-29T10:34:02;9.70;99.90
34646;DHT22;20857;47.808;12.482;2022-12-29T10:36:30;9.60;99.90
34646;DHT22;20857;47.808;12.482;2022-12-29T10:39:02;9.70;99.90
34646;DHT22;20857;47.808;12.482;2022-12-29T10:41:32;9.80;99.90
34646;DHT22;20857;47.808;12.482;2022-12-29T10:43:58;10.10;99.90
34646;DHT22;20857;47.808;12.482;2022-12-29T10:46:26;10.40;99.90
34646;DHT22;20857;47.808;12.482;2022-12-29T10:48:53;10.50;99.90
34646;DHT22;20857;47.808;12.482;2022-12-29T10:51:25;10.60;99.90
34646;DHT22;20857;47.808;12.482;2022-12-29T10:53:53;10.70;99.90
34646;DHT22;20857;47.808;12.482;2022-12-29T10:56:28;10.70;99.90
34646;DHT22;20857;47.808;12.482;2022-12-29T10:58:55;10.70;99.90
34646;DHT22;20857;47.808;12.482;2022-12-29T11:01:22;10.70;99.90
34646;DHT22;20857;47.808;12.482;2022-12-29T11:04:03;10.80;99.90
34646;DHT22;20857;47.808;12.482;2022-12-29T11:06:29;10.80;99.90
34646;DHT22;20857;47.808;12.482;2022-12-29T11:08:59;11.00;99.90
34646;DHT22;20857;47.808;12.482;2022-12-29T11:11:28;11.20;99.90
34646;DHT22;20857;47.808;12.482;2022-12-29T11:14:01;11.50;99.10
34646;DHT22;20857;47.808;12.482;2022-12-29T11:16:28;11.60;99.10
34646;DHT22;20857;47.808;12.482;2022-12-29T11:18:55;11.70;98.80
34646;DHT22;20857;47.808;12.482;2022-12-29T11:24:03;11.20;99.00
34646;DHT22;20857;47.808;12.482;2022-12-29T11:26:29;11.10;99.00
34646;DHT22;20857;47.808;12.482;2022-12-29T11:31:42;10.80;99.10
34646;DHT22;20857;47.808;12.482;2022-12-29T11:34:08;10.60;99.30
34646;DHT22;20857;47.808;12.482;2022-12-29T11:36:34;10.50;99.40
34646;DHT22;20857;47.808;12.482;2022-12-29T11:39:00;10.50;99.60
34646;DHT22;20857;47.808;12.482;2022-12-29T11:41:27;10.40;99.80
34646;DHT22;20857;47.808;12.482;2022-12-29T11:43:55;10.40;99.90
34646;DHT22;20857;47.808;12.482;2022-12-29T11:46:25;10.30;99.90
34646;DHT22;20857;47.808;12.482;2022-12-29T11:48:52;10.40;99.90
34646;DHT22;20857;47.808;12.482;2022-12-29T11:51:28;10.30;99.80
34646;DHT22;20857;47.808;12.482;2022-12-29T11:53:58;10.30;99.90
34646;DHT22;20857;47.808;12.482;2022-12-29T11:56:32;10.30;99.90
34646;DHT22;20857;47.808;12.482;2022-12-29T11:58:58;10.30;99.90
34646;DHT22;20857;47.808;12.482;2022-12-29T12:01:36;10.40;99.70
34646;DHT22;20857;47.808;12.482;2022-12-29T12:04:04;10.60;99.90
34646;DHT22;20857;47.808;12.482;2022-12-29T12:06:32;10.60;99.80
34646;DHT22;20857;47.808;12.482;2022-12-29T12:09:05;10.70;99.50
34646;DHT22;20857;47.808;12.482;2022-12-29T12:11:33;10.80;99.60
34646;DHT22;20857;47.808;12.482;2022-12-29T12:14:17;10.80;99.80
34646;DHT22;20857;47.808;12.482;2022-12-29T12:16:55;10.80;99.70
34646;DHT22;20857;47.808;12.482;2022-12-29T12:21:56;10.50;99.90
34646;DHT22;20857;47.808;12.482;2022-12-29T12:29:46;10.10;99.90
34646;DHT22;20857;47.808;12.482;2022-12-29T12:34:59;9.90;99.90
34646;DHT22;20857;47.808;12.482;2022-12-29T12:37:45;9.90;99.90
34646;DHT22;20857;47.808;12.482;2022-12-29T12:43:04;9.90;99.90
34646;DHT22;20857;47.808;12.482;2022-12-29T12:53:31;10.10;99.10
34646;DHT22;20857;47.808;12.482;2022-12-29T12:58:35;10.20;99.00
34646;DHT22;20857;47.808;12.482;2022-12-29T13:03:58;10.10;99.30
34646;DHT22;20857;47.808;12.482;2022-12-29T13:27:18;9.20;99.90
34646;DHT22;20857;47.808;12.482;2022-12-29T13:29:47;9.10;99.90
34646;DHT22;20857;47.808;12.482;2022-12-29T13:35:03;9.00;99.90
34646;DHT22;20857;47.808;12.482;2022-12-29T13:37:31;9.00;99.90
34646;DHT22;20857;47.808;12.482;2022-12-29T13:40:00;9.00;99.90
34646;DHT22;20857;47.808;12.482;2022-12-29T13:42:26;9.00;99.90
34646;DHT22;20857;47.808;12.482;2022-12-29T13:45:00;8.90;99.90
34646;DHT22;20857;47.808;12.482;2022-12-29T13:49:52;8.90;99.90
34646;DHT22;20857;47.808;12.482;2022-12-29T13:52:23;8.80;99.90
34646;DHT22;20857;47.808;12.482;2022-12-29T13:55:07;8.70;99.90
34646;DHT22;20857;47.808;12.482;2022-12-29T13:57:51;8.70;99.90
34646;DHT22;20857;47.808;12.482;2022-12-29T14:00:19;8.60;99.90
34646;DHT22;20857;47.808;12.482;2022-12-29T14:07:43;8.30;99.90
34646;DHT22;20857;47.808;12.482;2022-12-29T14:12:59;8.20;99.90
34646;DHT22;20857;47.808;12.482;2022-12-29T14:15:25;8.10;99.90
34646;DHT22;20857;47.808;12.482;2022-12-29T14:18:01;8.20;99.90
34646;DHT22;20857;47.808;12.482;2022-12-29T14:20:27;8.60;99.90
34646;DHT22;20857;47.808;12.482;2022-12-29T14:22:56;8.90;99.90
34646;DHT22;20857;47.808;12.482;2022-12-29T14:28:19;8.70;99.90
34646;DHT22;20857;47.808;12.482;2022-12-29T14:30:51;8.40;99.90
34646;DHT22;20857;47.808;12.482;2022-12-29T14:33:18;8.20;99.90
34646;DHT22;20857;47.808;12.482;2022-12-29T14:35:44;8.20;99.90
34646;DHT22;20857;47.808;12.482;2022-12-29T14:38:36;8.10;99.90
34646;DHT22;20857;47.808;12.482;2022-12-29T14:43:59;7.80;99.90
34646;DHT22;20857;47.808;12.482;2022-12-29T14:46:27;7.40;99.90
34646;DHT22;20857;47.808;12.482;2022-12-29T14:49:08;7.40;99.90
34646;DHT22;20857;47.808;12.482;2022-12-29T14:51:40;7.20;99.90
34646;DHT22;20857;47.808;12.482;2022-12-29T14:56:50;7.30;99.90
34646;DHT22;20857;47.808;12.482;2022-12-29T14:59:15;7.30;99.90
34646;DHT22;20857;47.808;12.482;2022-12-29T15:01:43;7.20;99.90
34646;DHT22;20857;47.808;12.482;2022-12-29T15:04:52;7.10;99.90
34646;DHT22;20857;47.808;12.482;2022-12-29T15:06:59;7.00;99.90
34646;DHT22;20857;47.808;12.482;2022-12-29T15:09:45;6.90;99.90
34646;DHT22;20857;47.808;12.482;2022-12-29T15:17:30;6.80;99.90
34646;DHT22;20857;47.808;12.482;2022-12-29T15:19:57;6.70;99.90
34646;DHT22;20857;47.808;12.482;2022-12-29T15:22:23;6.60;99.90
34646;DHT22;20857;47.808;12.482;2022-12-29T15:24:51;6.70;99.90
34646;DHT22;20857;47.808;12.482;2022-12-29T15:27:26;6.60;99.90
34646;DHT22;20857;47.808;12.482;2022-12-29T15:29:56;6.50;99.90
34646;DHT22;20857;47.808;12.482;2022-12-29T15:32:23;6.50;99.90
34646;DHT22;20857;47.808;12.482;2022-12-29T15:34:51;6.30;99.90
34646;DHT22;20857;47.808;12.482;2022-12-29T15:37:27;6.40;99.90
34646;DHT22;20857;47.808;12.482;2022-12-29T15:39:53;6.30;99.90
34646;DHT22;20857;47.808;12.482;2022-12-29T15:44:44;6.30;99.90
34646;DHT22;20857;47.808;12.482;2022-12-29T15:47:17;6.20;99.90
34646;DHT22;20857;47.808;12.482;2022-12-29T15:49:43;6.20;99.90
34646;DHT22;20857;47.808;12.482;2022-12-29T15:52:09;6.20;99.90
34646;DHT22;20857;47.808;12.482;2022-12-29T15:54:36;6.10;99.90
34646;DHT22;20857;47.808;12.482;2022-12-29T15:57:02;6.10;99.90
34646;DHT22;20857;47.808;12.482;2022-12-29T15:59:32;6.00;99.90
34646;DHT22;20857;47.808;12.482;2022-12-29T16:01:59;6.00;99.90
34646;DHT22;20857;47.808;12.482;2022-12-29T16:04:34;5.90;99.90
34646;DHT22;20857;47.808;12.482;2022-12-29T16:07:01;5.90;99.90
34646;DHT22;20857;47.808;12.482;2022-12-29T16:09:34;6.00;99.90
34646;DHT22;20857;47.808;12.482;2022-12-29T16:12:04;5.90;99.90
34646;DHT22;20857;47.808;12.482;2022-12-29T16:14:32;5.90;99.90
34646;DHT22;20857;47.808;12.482;2022-12-29T16:16:59;6.00;99.90
34646;DHT22;20857;47.808;12.482;2022-12-29T16:19:27;6.00;99.90
34646;DHT22;20857;47.808;12.482;2022-12-29T16:21:54;6.10;99.90
34646;DHT22;20857;47.808;12.482;2022-12-29T16:24:24;6.10;99.90
34646;DHT22;20857;47.808;12.482;2022-12-29T16:27:06;6.20;99.90
34646;DHT22;20857;47.808;12.482;2022-12-29T16:29:32;6.10;99.90
34646;DHT22;20857;47.808;12.482;2022-12-29T16:31:58;6.20;99.90
34646;DHT22;20857;47.808;12.482;2022-12-29T16:34:48;6.10;99.90
34646;DHT22;20857;47.808;12.482;2022-12-29T16:37:33;6.20;99.90
34646;DHT22;20857;47.808;12.482;2022-12-29T16:47:33;6.50;99.90
34646;DHT22;20857;47.808;12.482;2022-12-29T16:49:59;6.50;99.90
34646;DHT22;20857;47.808;12.482;2022-12-29T16:52:35;6.40;99.90
34646;DHT22;20857;47.808;12.482;2022-12-29T16:55:00;6.30;99.90
34646;DHT22;20857;47.808;12.482;2022-12-29T16:57:30;6.10;99.90
34646;DHT22;20857;47.808;12.482;2022-12-29T17:00:00;6.20;99.90
34646;DHT22;20857;47.808;12.482;2022-12-29T17:02:28;6.10;99.90
34646;DHT22;20857;47.808;12.482;2022-12-29T17:04:54;6.00;99.90
34646;DHT22;20857;47.808;12.482;2022-12-29T17:07:23;5.90;99.90
34646;DHT22;20857;47.808;12.482;2022-12-29T17:09:49;5.90;99.90
34646;DHT22;20857;47.808;12.482;2022-12-29T17:12:25;5.90;99.90
34646;DHT22;20857;47.808;12.482;2022-12-29T17:14:58;5.90;99.90
34646;DHT22;20857;47.808;12.482;2022-12-29T17:17:28;6.00;99.90
34646;DHT22;20857;47.808;12.482;2022-12-29T17:19:55;6.00;99.90
34646;DHT22;20857;47.808;12.482;2022-12-29T17:22:24;6.00;99.90
34646;DHT22;20857;47.808;12.482;2022-12-29T17:24:51;5.90;99.90
34646;DHT22;20857;47.808;12.482;2022-12-29T17:27:27;5.80;99.90
34646;DHT22;20857;47.808;12.482;2022-12-29T17:29:54;5.80;99.90
34646;DHT22;20857;47.808;12.482;2022-12-29T17:32:21;5.70;99.90
34646;DHT22;20857;47.808;12.482;2022-12-29T17:34:46;8.60;99.90
34646;DHT22;20857;47.808;12.482;2022-12-29T17:39:44;5.70;99.90
34646;DHT22;20857;47.808;12.482;2022-12-29T17:42:10;8.70;99.90
34646;DHT22;20857;47.808;12.482;2022-12-29T17:44:35;5.70;99.90
34646;DHT22;20857;47.808;12.482;2022-12-29T17:47:01;5.60;99.90
34646;DHT22;20857;47.808;12.482;2022-12-29T17:49:26;5.70;99.90
34646;DHT22;20857;47.808;12.482;2022-12-29T17:51:52;5.60;99.90
34646;DHT22;20857;47.808;12.482;2022-12-29T17:54:18;5.70;99.90
34646;DHT22;20857;47.808;12.482;2022-12-29T17:56:45;5.80;99.90
34646;DHT22;20857;47.808;12.482;2022-12-29T17:59:11;5.80;99.90